createdAt,value
2023-04-23T00:01:17.746Z,8.10
2023-04-23T00:03:45.716Z,8.10
2023-04-23T00:06:13.240Z,8.00
2023-04-23T00:08:43.722Z,7.80
2023-04-23T00:11:11.033Z,7.80
2023-04-23T00:13:38.652Z,8.00
2023-04-23T00:16:06.108Z,8.00
2023-04-23T00:18:33.180Z,8.00
2023-04-23T00:21:00.638Z,8.00
2023-04-23T00:23:29.174Z,7.90
2023-04-23T00:25:56.635Z,7.90
2023-04-23T00:28:23.870Z,7.90
2023-04-23T00:30:51.263Z,8.00
2023-04-23T00:33:18.448Z,8.00
2023-04-23T00:35:45.629Z,8.00
2023-04-23T00:38:12.650Z,8.00
2023-04-23T00:40:39.803Z,7.90
2023-04-23T00:43:07.537Z,7.90
2023-04-23T00:45:34.985Z,8.00
2023-04-23T00:48:03.162Z,7.90
2023-04-23T00:50:30.113Z,8.00
2023-04-23T00:52:57.223Z,8.00
2023-04-23T00:55:24.369Z,8.00
2023-04-23T00:57:51.573Z,8.00
2023-04-23T01:00:20.400Z,8.00
2023-04-23T01:02:49.606Z,8.00
2023-04-23T01:05:18.179Z,8.00
2023-04-23T01:07:47.034Z,8.10
2023-04-23T01:10:14.522Z,8.00
2023-04-23T01:12:41.525Z,8.10
2023-04-23T01:15:09.276Z,8.00
2023-04-23T01:17:37.255Z,8.00
2023-04-23T01:20:06.582Z,8.00
2023-04-23T01:22:37.766Z,8.00
2023-04-23T01:25:05.009Z,8.00
2023-04-23T01:27:33.368Z,7.90
2023-04-23T01:30:01.276Z,7.80
2023-04-23T01:32:28.439Z,7.80
2023-04-23T01:34:56.804Z,7.80
2023-04-23T01:37:25.278Z,7.70
2023-04-23T01:39:52.522Z,7.60
2023-04-23T01:42:20.348Z,7.50
2023-04-23T01:44:47.332Z,7.50
2023-04-23T01:47:14.353Z,7.40
2023-04-23T01:49:41.541Z,7.40
2023-04-23T01:52:08.567Z,7.40
2023-04-23T01:54:35.688Z,7.40
2023-04-23T01:57:03.216Z,7.40
2023-04-23T01:59:30.424Z,7.40
2023-04-23T02:01:57.660Z,7.40
2023-04-23T02:04:24.972Z,7.40
2023-04-23T02:06:52.467Z,7.40
2023-04-23T02:09:19.575Z,7.30
2023-04-23T02:11:46.575Z,7.30
2023-04-23T02:14:14.450Z,7.30
2023-04-23T02:16:41.395Z,7.20
2023-04-23T02:19:08.318Z,7.20
2023-04-23T02:21:35.539Z,7.20
2023-04-23T02:24:02.757Z,7.20
2023-04-23T02:26:30.097Z,7.20
2023-04-23T02:28:57.240Z,7.10
2023-04-23T02:31:24.394Z,7.10
2023-04-23T02:33:52.276Z,7.10
2023-04-23T02:36:19.433Z,7.00
2023-04-23T02:38:48.627Z,7.00
2023-04-23T02:41:15.633Z,7.00
2023-04-23T02:43:42.682Z,7.00
2023-04-23T02:46:09.782Z,7.00
2023-04-23T02:48:39.689Z,6.90
2023-04-23T02:51:08.712Z,7.00
2023-04-23T02:53:36.407Z,7.00
2023-04-23T02:56:03.744Z,7.10
2023-04-23T02:58:31.448Z,7.10
2023-04-23T03:00:58.853Z,7.00
2023-04-23T03:03:31.996Z,7.00
2023-04-23T03:06:00.940Z,7.00
2023-04-23T03:08:28.521Z,7.00
2023-04-23T03:10:55.569Z,6.90
2023-04-23T03:13:22.709Z,6.80
2023-04-23T03:15:50.865Z,6.80
2023-04-23T03:18:18.056Z,6.90
2023-04-23T03:20:45.293Z,7.00
2023-04-23T03:23:12.469Z,7.00
2023-04-23T03:25:39.825Z,7.00
2023-04-23T03:28:06.786Z,7.10
2023-04-23T03:30:34.203Z,7.00
2023-04-23T03:33:02.587Z,7.00
2023-04-23T03:35:29.734Z,7.00
2023-04-23T03:37:56.806Z,7.00
2023-04-23T03:40:23.918Z,7.00
2023-04-23T03:42:50.994Z,7.00
2023-04-23T03:45:17.967Z,7.00
2023-04-23T03:47:45.189Z,7.00
2023-04-23T03:50:15.065Z,7.00
2023-04-23T03:52:42.022Z,7.10
2023-04-23T03:55:09.812Z,7.00
2023-04-23T03:57:37.327Z,7.00
2023-04-23T04:00:08.897Z,7.10
2023-04-23T04:02:36.069Z,7.20
2023-04-23T04:05:03.351Z,7.30
2023-04-23T04:07:30.711Z,7.30
2023-04-23T04:09:57.701Z,7.30
2023-04-23T04:12:24.694Z,7.30
2023-04-23T04:14:51.862Z,7.30
2023-04-23T04:17:18.920Z,7.30
2023-04-23T04:19:46.526Z,7.30
2023-04-23T04:22:13.456Z,7.30
2023-04-23T04:24:42.504Z,7.30
2023-04-23T04:27:10.057Z,7.30
2023-04-23T04:29:37.201Z,7.40
2023-04-23T04:32:05.323Z,7.40
2023-04-23T04:34:32.796Z,7.40
2023-04-23T04:36:59.748Z,7.50
2023-04-23T04:39:27.130Z,7.40
2023-04-23T04:41:54.580Z,7.50
2023-04-23T04:44:22.528Z,7.50
2023-04-23T04:46:49.471Z,7.50
2023-04-23T04:49:19.684Z,7.50
2023-04-23T04:51:46.909Z,7.40
2023-04-23T04:54:13.849Z,7.40
2023-04-23T04:56:40.863Z,7.40
2023-04-23T04:59:07.866Z,7.40
2023-04-23T05:01:34.979Z,7.40
2023-04-23T05:04:02.370Z,7.40
2023-04-23T05:06:29.616Z,7.40
2023-04-23T05:08:56.520Z,7.40
2023-04-23T05:11:23.644Z,7.30
2023-04-23T05:13:51.089Z,7.30
2023-04-23T05:16:18.768Z,7.30
2023-04-23T05:18:46.748Z,7.30
2023-04-23T05:21:15.144Z,7.30
2023-04-23T05:23:42.032Z,7.30
2023-04-23T05:26:09.131Z,7.40
2023-04-23T05:28:36.506Z,7.40
2023-04-23T05:31:03.843Z,7.40
2023-04-23T05:33:36.464Z,7.40
2023-04-23T05:36:13.845Z,7.40
2023-04-23T05:38:41.029Z,7.40
2023-04-23T05:41:11.246Z,7.40
2023-04-23T05:43:38.950Z,7.50
2023-04-23T05:46:07.818Z,7.50
2023-04-23T05:48:35.005Z,7.50
2023-04-23T05:51:02.454Z,7.50
2023-04-23T05:53:29.897Z,7.50
2023-04-23T05:55:57.405Z,7.50
2023-04-23T05:58:24.493Z,7.50
2023-04-23T06:00:53.169Z,7.50
2023-04-23T06:03:20.839Z,7.50
2023-04-23T06:05:48.288Z,7.50
2023-04-23T06:08:15.357Z,7.50
2023-04-23T06:10:42.364Z,7.40
2023-04-23T06:13:11.156Z,7.40
2023-04-23T06:15:38.672Z,7.40
2023-04-23T06:18:05.966Z,7.40
2023-04-23T06:20:33.402Z,7.40
2023-04-23T06:23:00.396Z,7.50
2023-04-23T06:25:27.435Z,7.40
2023-04-23T06:27:54.751Z,7.40
2023-04-23T06:30:21.721Z,7.40
2023-04-23T06:32:48.770Z,7.40
2023-04-23T06:35:15.853Z,7.40
2023-04-23T06:37:43.007Z,7.40
2023-04-23T06:40:10.384Z,7.40
2023-04-23T06:42:37.542Z,7.40
2023-04-23T06:45:06.191Z,7.40
2023-04-23T06:47:33.850Z,7.40
2023-04-23T06:50:00.845Z,7.40
2023-04-23T06:52:27.856Z,7.50
2023-04-23T06:54:54.794Z,7.50
2023-04-23T06:57:22.042Z,7.40
2023-04-23T06:59:49.286Z,7.40
2023-04-23T07:02:16.390Z,7.50
2023-04-23T07:04:44.172Z,7.50
2023-04-23T07:07:12.346Z,7.50
2023-04-23T07:09:39.457Z,7.50
2023-04-23T07:12:06.569Z,7.40
2023-04-23T07:14:33.753Z,7.40
2023-04-23T07:17:00.802Z,7.40
2023-04-23T07:19:27.774Z,7.50
2023-04-23T07:21:54.919Z,7.50
2023-04-23T07:24:21.963Z,7.50
2023-04-23T07:26:48.938Z,7.40
2023-04-23T07:29:15.919Z,7.40
2023-04-23T07:31:43.173Z,7.40
2023-04-23T07:34:10.436Z,7.50
2023-04-23T07:36:37.699Z,7.40
2023-04-23T07:39:05.853Z,7.50
2023-04-23T07:41:33.301Z,7.50
2023-04-23T07:44:01.189Z,7.60
2023-04-23T07:46:28.372Z,7.60
2023-04-23T07:48:55.911Z,7.50
2023-04-23T07:51:26.799Z,7.60
2023-04-23T07:53:58.422Z,7.60
2023-04-23T07:56:25.581Z,7.60
2023-04-23T07:58:54.399Z,7.50
2023-04-23T08:01:21.923Z,7.50
2023-04-23T08:03:49.284Z,7.50
2023-04-23T08:06:16.773Z,7.40
2023-04-23T08:08:43.845Z,7.50
2023-04-23T08:11:11.713Z,7.40
2023-04-23T08:13:38.846Z,7.40
2023-04-23T08:16:06.306Z,7.40
2023-04-23T08:18:33.438Z,7.40
2023-04-23T08:21:00.340Z,7.50
2023-04-23T08:23:27.329Z,7.50
2023-04-23T08:25:54.276Z,7.50
2023-04-23T08:28:21.363Z,7.50
2023-04-23T08:30:48.617Z,7.50
2023-04-23T08:33:15.676Z,7.60
2023-04-23T08:35:42.858Z,7.50
2023-04-23T08:38:09.810Z,7.50
2023-04-23T08:40:37.900Z,7.50
2023-04-23T08:43:20.687Z,7.50
2023-04-23T08:45:48.983Z,7.50
2023-04-23T08:48:16.512Z,7.50
2023-04-23T08:50:44.212Z,7.50
2023-04-23T08:53:11.648Z,7.40
2023-04-23T08:55:39.493Z,7.40
2023-04-23T08:58:07.148Z,7.40
2023-04-23T09:00:37.069Z,7.40
2023-04-23T09:03:04.900Z,7.40
2023-04-23T09:05:32.537Z,7.40
2023-04-23T09:08:00.008Z,7.40
2023-04-23T09:10:27.369Z,7.40
2023-04-23T09:12:54.752Z,7.40
2023-04-23T09:15:22.531Z,7.40
2023-04-23T09:17:50.372Z,7.40
2023-04-23T09:20:18.010Z,7.40
2023-04-23T09:22:50.319Z,7.50
2023-04-23T09:25:22.080Z,7.50
2023-04-23T09:27:51.320Z,7.60
2023-04-23T09:30:19.392Z,7.70
2023-04-23T09:32:47.426Z,7.80
2023-04-23T09:35:16.264Z,7.90
2023-04-23T09:37:48.456Z,7.90
2023-04-23T09:40:18.246Z,7.80
2023-04-23T09:42:58.362Z,7.90
2023-04-23T09:45:26.145Z,7.90
2023-04-23T09:47:57.217Z,7.90
2023-04-23T09:50:35.734Z,7.90
2023-04-23T09:53:03.847Z,7.90
2023-04-23T09:55:37.618Z,7.80
2023-04-23T09:58:12.107Z,7.90
2023-04-23T10:00:40.496Z,8.00
2023-04-23T10:03:09.650Z,8.30
2023-04-23T10:08:13.564Z,8.60
2023-04-23T10:10:56.886Z,8.70
2023-04-23T10:13:28.831Z,9.00
2023-04-23T10:16:07.091Z,9.20
2023-04-23T10:18:38.743Z,9.20
2023-04-23T10:21:07.220Z,9.10
2023-04-23T10:23:36.161Z,9.10
2023-04-23T10:26:05.347Z,8.90
2023-04-23T10:28:34.004Z,8.80
2023-04-23T10:31:02.395Z,8.60
2023-04-23T10:33:39.938Z,8.40
2023-04-23T10:36:10.176Z,8.30
2023-04-23T10:38:45.479Z,8.20
2023-04-23T10:41:25.288Z,8.10
2023-04-23T10:43:53.856Z,8.10
2023-04-23T10:46:31.320Z,8.00
2023-04-23T10:49:16.504Z,7.90
2023-04-23T10:52:17.624Z,7.90
2023-04-23T10:54:36.211Z,7.80
2023-04-23T10:57:05.144Z,7.80
2023-04-23T10:59:33.505Z,7.70
2023-04-23T11:02:11.555Z,7.60
2023-04-23T11:05:09.091Z,7.60
2023-04-23T11:07:36.078Z,7.50
2023-04-23T11:10:13.521Z,7.50
2023-04-23T11:12:41.256Z,7.40
2023-04-23T11:15:19.561Z,7.40
2023-04-23T11:17:49.377Z,7.30
2023-04-23T11:20:20.796Z,7.40
2023-04-23T11:22:49.838Z,7.40
2023-04-23T11:25:21.347Z,7.30
2023-04-23T11:27:50.000Z,7.30
2023-04-23T11:30:19.498Z,7.30
2023-04-23T11:32:49.560Z,7.30
2023-04-23T11:35:21.910Z,7.20
2023-04-23T11:37:49.481Z,7.20
2023-04-23T11:40:20.254Z,7.20
2023-04-23T11:42:55.597Z,7.20
2023-04-23T11:45:27.825Z,7.30
2023-04-23T11:47:56.683Z,7.30
2023-04-23T11:50:33.195Z,7.30
2023-04-23T11:53:09.492Z,7.30
2023-04-23T11:55:36.933Z,7.30
2023-04-23T11:58:04.156Z,7.30
2023-04-23T12:00:31.134Z,7.30
2023-04-23T12:03:03.255Z,7.30
2023-04-23T12:05:36.951Z,7.30
2023-04-23T12:08:12.763Z,7.30
2023-04-23T12:10:44.289Z,7.30
2023-04-23T12:13:22.563Z,7.20
2023-04-23T12:15:51.027Z,7.20
2023-04-23T12:18:18.635Z,7.20
2023-04-23T12:20:46.318Z,7.20
2023-04-23T12:23:13.278Z,7.20
2023-04-23T12:25:41.862Z,7.10
2023-04-23T12:28:08.954Z,7.10
2023-04-23T12:30:43.744Z,7.10
2023-04-23T12:33:11.975Z,7.20
2023-04-23T12:35:49.928Z,7.30
2023-04-23T12:38:30.437Z,7.50
2023-04-23T12:40:59.136Z,7.50
2023-04-23T12:43:27.221Z,7.50
2023-04-23T12:45:57.239Z,7.50
2023-04-23T12:48:24.304Z,7.50
2023-04-23T12:50:51.575Z,7.70
2023-04-23T12:53:19.069Z,7.70
2023-04-23T12:55:46.204Z,7.80
2023-04-23T12:58:13.128Z,7.90
2023-04-23T13:00:40.282Z,8.00
2023-04-23T13:03:08.085Z,8.30
2023-04-23T13:05:35.414Z,8.30
2023-04-23T13:08:02.368Z,8.30
2023-04-23T13:10:30.994Z,8.10
2023-04-23T13:12:57.940Z,8.00
2023-04-23T13:15:26.928Z,8.10
2023-04-23T13:17:54.491Z,8.40
2023-04-23T13:20:21.766Z,8.50
2023-04-23T13:22:48.888Z,8.30
2023-04-23T13:25:15.864Z,8.50
2023-04-23T13:27:42.955Z,8.60
2023-04-23T13:30:10.248Z,8.60
2023-04-23T13:32:37.140Z,8.40
2023-04-23T13:35:05.214Z,8.20
2023-04-23T13:37:32.456Z,8.20
2023-04-23T13:39:59.628Z,8.00
2023-04-23T13:42:26.520Z,8.00
2023-04-23T13:44:53.480Z,8.10
2023-04-23T13:47:20.524Z,8.10
2023-04-23T13:49:47.923Z,8.20
2023-04-23T13:52:14.877Z,8.30
2023-04-23T13:54:42.319Z,8.40
2023-04-23T13:57:09.489Z,8.50
2023-04-23T13:59:36.425Z,8.50
2023-04-23T14:02:03.375Z,8.30
2023-04-23T14:04:30.723Z,8.10
2023-04-23T14:06:57.720Z,7.90
2023-04-23T14:09:25.282Z,7.90
2023-04-23T14:11:52.366Z,7.90
2023-04-23T14:14:19.431Z,8.10
2023-04-23T14:16:46.363Z,8.10
2023-04-23T14:19:13.462Z,8.00
2023-04-23T14:21:41.929Z,8.00
2023-04-23T14:24:16.742Z,7.90
2023-04-23T14:26:49.528Z,7.90
2023-04-23T14:29:23.111Z,7.80
2023-04-23T14:31:50.752Z,7.70
2023-04-23T14:34:17.738Z,7.70
2023-04-23T14:36:46.590Z,7.80
2023-04-23T14:39:13.519Z,7.90
2023-04-23T14:41:41.148Z,8.00
2023-04-23T14:44:08.130Z,7.90
2023-04-23T14:46:35.281Z,8.00
2023-04-23T14:49:02.446Z,8.00
2023-04-23T14:51:29.458Z,8.00
2023-04-23T14:53:56.905Z,8.00
2023-04-23T14:56:24.074Z,7.90
2023-04-23T14:58:51.125Z,7.80
2023-04-23T15:01:18.327Z,7.70
2023-04-23T15:03:46.124Z,7.40
2023-04-23T15:06:13.529Z,7.40
2023-04-23T15:08:40.460Z,7.30
2023-04-23T15:11:13.257Z,7.10
2023-04-23T15:13:50.305Z,7.10
2023-04-23T15:16:46.807Z,7.10
2023-04-23T15:19:18.019Z,7.00
2023-04-23T15:21:45.780Z,7.00
2023-04-23T15:24:12.701Z,6.90
2023-04-23T15:26:40.109Z,6.90
2023-04-23T15:29:09.250Z,6.90
2023-04-23T15:31:37.303Z,6.90
2023-04-23T15:34:06.274Z,7.00
2023-04-23T15:36:34.811Z,7.10
2023-04-23T15:39:01.972Z,7.00
2023-04-23T15:41:29.128Z,7.00
2023-04-23T15:43:56.832Z,7.00
2023-04-23T15:46:23.858Z,6.80
2023-04-23T15:48:50.762Z,6.70
2023-04-23T15:51:17.961Z,6.50
2023-04-23T15:53:45.095Z,6.50
2023-04-23T15:56:12.050Z,6.40
2023-04-23T15:58:39.149Z,6.40
2023-04-23T16:01:07.487Z,6.40
2023-04-23T16:03:34.855Z,6.40
2023-04-23T16:06:02.393Z,6.40
2023-04-23T16:08:29.331Z,6.50
2023-04-23T16:10:58.160Z,6.50
2023-04-23T16:13:25.620Z,6.50
2023-04-23T16:15:53.132Z,6.60
2023-04-23T16:18:20.176Z,6.60
2023-04-23T16:20:47.409Z,6.50
2023-04-23T16:23:14.525Z,6.50
2023-04-23T16:25:41.612Z,6.30
2023-04-23T16:28:08.724Z,6.10
2023-04-23T16:30:35.810Z,6.00
2023-04-23T16:33:02.811Z,5.90
2023-04-23T16:35:29.865Z,6.00
2023-04-23T16:37:56.817Z,6.10
2023-04-23T16:40:23.721Z,6.10
2023-04-23T16:42:50.752Z,6.10
2023-04-23T16:45:22.788Z,6.20
2023-04-23T16:47:52.814Z,6.20
2023-04-23T16:50:20.046Z,6.20
2023-04-23T16:52:47.216Z,6.20
2023-04-23T16:55:14.714Z,6.10
2023-04-23T16:57:41.680Z,6.10
2023-04-23T17:00:10.156Z,6.10
2023-04-23T17:02:38.155Z,6.10
2023-04-23T17:05:06.355Z,6.20
2023-04-23T17:07:33.666Z,6.20
2023-04-23T17:10:00.624Z,6.20
2023-04-23T17:12:27.622Z,6.20
2023-04-23T17:14:54.709Z,6.20
2023-04-23T17:17:21.713Z,6.10
2023-04-23T17:19:48.882Z,6.10
2023-04-23T17:22:15.944Z,6.10
2023-04-23T17:24:43.071Z,6.10
2023-04-23T17:27:10.817Z,6.00
2023-04-23T17:29:37.761Z,6.00
2023-04-23T17:32:04.878Z,6.00
2023-04-23T17:34:33.557Z,6.00
2023-04-23T17:37:00.456Z,6.00
2023-04-23T17:39:27.548Z,6.00
2023-04-23T17:41:56.168Z,5.90
2023-04-23T17:44:23.455Z,5.80
2023-04-23T17:46:52.280Z,5.70
2023-04-23T17:49:20.046Z,5.60
2023-04-23T17:51:48.629Z,5.70
2023-04-23T17:54:15.722Z,5.70
2023-04-23T17:56:42.725Z,5.70
2023-04-23T17:59:09.760Z,5.70
2023-04-23T18:01:37.025Z,5.60
2023-04-23T18:04:05.094Z,5.60
2023-04-23T18:06:33.743Z,5.60
2023-04-23T18:09:00.948Z,5.60
2023-04-23T18:11:27.938Z,5.60
2023-04-23T18:13:55.151Z,5.60
2023-04-23T18:16:22.060Z,5.60
2023-04-23T18:18:49.522Z,5.60
2023-04-23T18:21:18.450Z,5.60
2023-04-23T18:23:46.445Z,5.60
2023-04-23T18:26:13.499Z,5.60
2023-04-23T18:28:40.674Z,5.60
2023-04-23T18:31:07.975Z,5.50
2023-04-23T18:33:43.241Z,5.40
2023-04-23T18:36:24.377Z,5.30
2023-04-23T18:38:51.883Z,5.30
2023-04-23T18:41:18.831Z,5.30
2023-04-23T18:43:46.030Z,5.20
2023-04-23T18:46:13.657Z,5.20
2023-04-23T18:48:45.528Z,5.20
2023-04-23T18:51:19.714Z,5.20
2023-04-23T18:53:47.383Z,5.20
2023-04-23T18:56:15.025Z,5.20
2023-04-23T18:58:42.024Z,5.30
2023-04-23T19:01:09.089Z,5.30
2023-04-23T19:03:36.923Z,5.30
2023-04-23T19:06:07.513Z,5.30
2023-04-23T19:08:35.903Z,5.30
2023-04-23T19:11:03.749Z,5.30
2023-04-23T19:13:30.905Z,5.30
2023-04-23T19:15:58.036Z,5.30
2023-04-23T19:18:25.049Z,5.30
2023-04-23T19:20:52.790Z,5.30
2023-04-23T19:23:20.591Z,5.30
2023-04-23T19:25:48.177Z,5.30
2023-04-23T19:28:15.244Z,5.30
2023-04-23T19:30:42.484Z,5.30
2023-04-23T19:33:09.833Z,5.40
2023-04-23T19:35:39.907Z,5.30
2023-04-23T19:38:07.513Z,5.40
2023-04-23T19:40:34.811Z,5.40
2023-04-23T19:43:02.023Z,5.40
2023-04-23T19:45:30.130Z,5.40
2023-04-23T19:47:57.555Z,5.40
2023-04-23T19:50:25.644Z,5.30
2023-04-23T19:52:53.414Z,5.40
2023-04-23T19:55:22.699Z,5.40
2023-04-23T19:57:49.620Z,5.30
2023-04-23T20:00:17.160Z,5.40
2023-04-23T20:02:44.280Z,5.40
2023-04-23T20:05:11.601Z,5.40
2023-04-23T20:07:39.390Z,5.40
2023-04-23T20:10:07.484Z,5.40
2023-04-23T20:12:35.039Z,5.40
2023-04-23T20:15:02.482Z,5.40
2023-04-23T20:17:32.968Z,5.40
2023-04-23T20:20:02.111Z,5.40
2023-04-23T20:22:29.900Z,5.30
2023-04-23T20:24:58.071Z,5.30
2023-04-23T20:27:26.425Z,5.20
2023-04-23T20:29:53.434Z,5.20
2023-04-23T20:32:20.756Z,5.10
2023-04-23T20:34:47.737Z,5.00
2023-04-23T20:37:14.996Z,5.00
2023-04-23T20:39:43.649Z,5.00
2023-04-23T20:42:11.086Z,5.10
2023-04-23T20:44:38.730Z,5.00
2023-04-23T20:47:08.448Z,4.90
2023-04-23T20:49:35.624Z,4.90
2023-04-23T20:52:02.684Z,4.90
2023-04-23T20:54:29.578Z,4.90
2023-04-23T20:56:56.719Z,4.90
2023-04-23T20:59:23.693Z,4.90
2023-04-23T21:01:50.697Z,5.00
2023-04-23T21:04:17.747Z,5.00
2023-04-23T21:06:47.074Z,5.00
2023-04-23T21:09:14.590Z,5.00
2023-04-23T21:11:41.698Z,5.00
2023-04-23T21:14:09.028Z,5.00
2023-04-23T21:16:38.286Z,5.00
2023-04-23T21:19:06.124Z,5.00
2023-04-23T21:21:33.350Z,5.00
2023-04-23T21:24:01.219Z,5.00
2023-04-23T21:26:31.399Z,5.00
2023-04-23T21:28:58.668Z,5.00
2023-04-23T21:31:45.747Z,5.00
2023-04-23T21:34:13.830Z,5.00
2023-04-23T21:36:41.100Z,5.00
2023-04-23T21:39:08.272Z,5.00
2023-04-23T21:41:36.020Z,5.00
2023-04-23T21:44:03.108Z,5.00
2023-04-23T21:46:32.084Z,5.00
2023-04-23T21:48:59.340Z,5.00
2023-04-23T21:51:26.368Z,5.00
2023-04-23T21:53:53.279Z,5.00
2023-04-23T21:56:21.632Z,5.00
2023-04-23T21:58:48.687Z,5.00
2023-04-23T22:01:16.945Z,5.00
2023-04-23T22:03:47.186Z,5.00
2023-04-23T22:06:15.942Z,4.90
2023-04-23T22:08:44.782Z,5.00
2023-04-23T22:11:12.862Z,4.90
2023-04-23T22:13:39.859Z,5.00
2023-04-23T22:16:20.341Z,5.00
2023-04-23T22:18:54.400Z,5.00
2023-04-23T22:21:21.464Z,5.00
2023-04-23T22:23:48.532Z,5.00
2023-04-23T22:26:15.754Z,5.00
2023-04-23T22:28:43.685Z,5.10
2023-04-23T22:31:11.141Z,5.10
2023-04-23T22:33:38.264Z,5.10
2023-04-23T22:36:05.577Z,5.10
2023-04-23T22:38:32.620Z,5.10
2023-04-23T22:40:59.968Z,5.10
2023-04-23T22:43:26.931Z,5.10
2023-04-23T22:45:54.200Z,5.10
2023-04-23T22:48:21.568Z,5.10
2023-04-23T22:50:51.101Z,5.10
2023-04-23T22:53:19.747Z,5.10
2023-04-23T22:55:47.124Z,5.00
2023-04-23T22:58:14.349Z,5.10
2023-04-23T23:00:41.374Z,5.10
2023-04-23T23:03:08.616Z,5.10
2023-04-23T23:05:35.987Z,5.10
2023-04-23T23:08:03.197Z,5.10
2023-04-23T23:10:30.635Z,5.10
2023-04-23T23:12:57.693Z,5.10
2023-04-23T23:15:24.652Z,5.10
2023-04-23T23:17:51.587Z,5.10
2023-04-23T23:20:19.762Z,5.10
2023-04-23T23:22:47.217Z,5.10
2023-04-23T23:25:14.166Z,5.00
2023-04-23T23:27:41.607Z,5.00
2023-04-23T23:30:09.735Z,5.00
2023-04-23T23:32:37.087Z,5.00
2023-04-23T23:35:04.857Z,5.00
2023-04-23T23:37:36.802Z,5.00
2023-04-23T23:40:05.687Z,5.10
2023-04-23T23:42:32.588Z,5.10
2023-04-23T23:44:59.524Z,5.10
2023-04-23T23:47:26.998Z,5.00
2023-04-23T23:49:54.198Z,5.00
2023-04-23T23:52:21.152Z,5.00
2023-04-23T23:54:48.059Z,5.00
2023-04-23T23:57:15.019Z,5.00
2023-04-23T23:59:42.138Z,5.00
